• Join FlightAware (Why Join?)
  • Login
  • US Flag 
04:01PM EST


 

Airport Tracker/Info


-or-


 

Live Flight TrackerFlight Track Log ✈ SWA1802 ✈ 11-Jun-2013 ✈ KMDW - KLAX

Flight Track Log - Related Links

Times and Time Zones

All times are in EDT time to prevent confusion due to time zone crossing. See the SWA1802 flight status page for this flight to view local times or setup timezone preferences in your user account.

Time Position Orientation Groundspeed Altitude Reporting Facility
EDT Latitude Longitude Course Direction KTS MPH feet Rate Location/Type
06:45PM 41.8000 -87.7333 294° West 175 201 1,500  Level Chicago TRACON
06:46PM 41.8167 -87.7833 294° West 203 234 2,800 720 Climbing Chicago TRACON
06:47PM 41.8036 -87.8406 253° West 217 250 3,000 60 Climbing Chicago Center
06:48PM 41.7850 -87.9161 252° West 217 250 3,000 480 Level Chicago Center
06:49PM 41.7578 -88.0117 249° West 224 258 4,000 960 Climbing Chicago Center
06:50PM 41.7581 -88.1053 270° West 254 292 5,100 1,860 Climbing Chicago Center
06:51PM 41.7994 -88.1833 305° West 264 304 7,900 2,700 Climbing Chicago Center
06:52PM 41.8419 -88.2644 305° West 281 323 10,800 2,220 Climbing Chicago Center
06:53PM 41.8378 -88.3644 267° West 281 323 12,500 1,500 Climbing Chicago Center
06:54PM 41.8053 -88.5092 253° West 340 391 13,900 1,920 Climbing Chicago Center
06:55PM 41.7761 -88.6422 254° West 371 427 16,500 2,280 Climbing Chicago Center
06:56PM 41.7472 -88.7739 254° West 373 429 18,700 1,860 Climbing Chicago Center
06:57PM 41.7161 -88.9125 253° West 388 447 20,400 1,860 Climbing Chicago Center
06:58PM 41.6783 -89.0844 254° West 403 464 22,600 1,740 Climbing Chicago Center
06:59PM 41.6458 -89.2306 253° West 412 474 24,100 1,440 Climbing Chicago Center
07:00PM 41.6128 -89.3825 254° West 426 490 25,600 1,320 Climbing Chicago Center
07:01PM 41.5794 -89.5342 254° West 429 494 26,900 1,200 Climbing Chicago Center
07:02PM 41.5442 -89.7044 255° West 441 507 28,100 1,320 Climbing Chicago Center
07:03PM 41.5244 -89.8658 261° West 442 509 29,700 1,680 Climbing Chicago Center
07:04PM 41.5036 -90.0222 260° West 435 501 31,600 1,740 Climbing Chicago Center
07:05PM 41.4836 -90.1708 260° West 416 479 33,400 1,740 Climbing Chicago Center
07:06PM 41.4614 -90.3428 260° West 398 458 35,200 1,200 Climbing Chicago Center
07:08PM 41.4419 -90.4831 260° West 389 448 36,000 360 Climbing Chicago Center
07:09PM 41.4231 -90.6219 260° West 384 442 36,000  Level Chicago Center
07:10PM 41.4017 -90.7678 259° West 397 457 36,000  Level Chicago Center
07:11PM 41.3819 -90.9078 259° West 390 449 36,000  Level Chicago Center
07:12PM 41.3578 -91.0794 259° West 392 451 36,000  Level Chicago Center
07:13PM 41.3364 -91.2233 259° West 397 457 36,000  Level Chicago Center
07:14PM 41.3156 -91.3650 259° West 395 455 36,000  Level Chicago Center
07:15PM 41.2947 -91.5100 259° West 400 460 36,000  Level Chicago Center
07:16PM 41.2736 -91.6531 259° West 397 457 36,000  Level Chicago Center
07:17PM 41.2483 -91.8272 259° West 402 463 36,000  Level Chicago Center
07:18PM 41.2283 -91.9544 258° West 404 465 36,000  Level Chicago Center
07:19PM 41.2019 -92.1292 259° West 405 466 36,000  Level Chicago Center
07:20PM 41.1800 -92.2750 259° West 407 468 36,000  Level Chicago Center
07:21PM 41.1572 -92.4189 258° West 406 467 36,000  Level Chicago Center
07:22PM 41.1353 -92.5628 259° West 403 464 36,000  Level Chicago Center
07:23PM 41.1122 -92.7067 258° West 402 463 36,000  Level Chicago Center
07:24PM 41.0836 -92.8825 258° West 411 473 36,000  Level Chicago Center
07:25PM 41.0614 -93.0283 259° West 410 472 36,000  Level Chicago Center
07:26PM 41.0369 -93.1758 258° West 413 475 36,000  Level Chicago Center
07:27PM 41.0122 -93.3239 258° West 417 480 36,000  Level Chicago Center
07:28PM 40.9839 -93.5003 258° West 415 478 36,000  Level Chicago Center
07:29PM 40.9592 -93.6489 258° West 417 480 36,000  Level Chicago Center
07:30PM 40.9356 -93.7944 258° West 414 476 36,000  Level Minneapolis Center
07:31PM 40.9056 -93.9700 257° West 414 476 36,000  Level Minneapolis Center
07:32PM 40.8817 -94.1158 258° West 414 476 36,000  Level Minneapolis Center
07:33PM 40.8556 -94.2628 257° West 414 476 36,000  Level Minneapolis Center
07:35PM 40.8286 -94.4100 256° West 416 479 36,000  Level Minneapolis Center
07:36PM 40.7989 -94.5719 256° West 420 483 36,000  Level Minneapolis Center
07:37PM 40.7728 -94.7225 257° West 421 484 36,000  Level Minneapolis Center
07:38PM 40.7442 -94.8750 256° West 424 488 36,000  Level Minneapolis Center
07:39PM 40.7131 -95.0564 257° West 423 487 36,000  Level Minneapolis Center
07:40PM 40.6850 -95.2103 257° West 427 491 36,000  Level Minneapolis Center
07:41PM 40.6572 -95.3617 256° West 425 489 36,000  Level Minneapolis Center
07:42PM 40.6297 -95.5131 257° West 423 487 36,000  Level Minneapolis Center
07:43PM 40.6025 -95.6633 257° West 422 486 36,000  Level Minneapolis Center
07:44PM 40.5739 -95.8150 256° West 424 488 36,000  Level Minneapolis Center
07:45PM 40.5456 -95.9631 256° West 421 484 36,000  Level Minneapolis Center
07:46PM 40.5119 -96.1444 256° West 421 484 36,000  Level Minneapolis Center
07:47PM 40.4828 -96.2936 256° West 420 483 36,000  Level Minneapolis Center
07:48PM 40.4542 -96.4419 256° West 419 482 36,000  Level Minneapolis Center
07:49PM 40.4256 -96.5914 256° West 419 482 36,000  Level Minneapolis Center
07:50PM 40.3964 -96.7392 256° West 418 481 36,000  Level Minneapolis Center
07:51PM 40.3678 -96.8869 256° West 417 480 36,000  Level Minneapolis Center
07:52PM 40.3381 -97.0333 255° West 417 480 36,000  Level Minneapolis Center
07:53PM 40.3089 -97.1800 255° West 415 478 36,000  Level Minneapolis Center
07:54PM 40.2733 -97.3569 255° West 413 475 36,000  Level Minneapolis Center
07:55PM 40.2436 -97.5003 255° West 410 472 36,000  Level Minneapolis Center
07:56PM 40.2142 -97.6458 255° West 411 473 36,000  Level Minneapolis Center
07:57PM 40.1850 -97.7903 255° West 411 473 36,000  Level Minneapolis Center
07:58PM 40.1550 -97.9336 255° West 409 471 36,000  Level Minneapolis Center
07:59PM 40.1247 -98.0789 255° West 411 473 36,000  Level Minneapolis Center
08:00PM 40.0939 -98.2256 255° West 416 479 36,000  Level Minneapolis Center
08:01PM 40.0628 -98.3711 254° West 416 479 36,000  Level Minneapolis Center
08:02PM 40.0244 -98.5475 254° West 418 481 36,000  Level Minneapolis Center
08:03PM 39.9936 -98.6947 255° West 419 482 36,000  Level Minneapolis Center
08:04PM 39.9614 -98.8411 254° West 419 482 36,000  Level Minneapolis Center
08:05PM 39.9300 -98.9867 254° West 417 480 36,000  Level Minneapolis Center
08:06PM 39.8983 -99.1308 254° West 415 478 36,000  Level Minneapolis Center
08:08PM 39.8669 -99.2758 254° West 415 478 36,000  Level Minneapolis Center
08:09PM 39.8344 -99.4189 254° West 413 475 36,000  Level Minneapolis Center
08:10PM 39.8028 -99.5600 254° West 409 471 36,000  Level Minneapolis Center
08:11PM 39.7653 -99.7267 254° West 402 463 36,000  Level Minneapolis Center
08:12PM 39.7339 -99.8669 254° West 402 463 36,000  Level Minneapolis Center
08:13PM 39.6958 -100.0303 253° West 408 470 36,000  Level Denver Center
08:14PM 39.6636 -100.1694 253° West 416 479 36,000  Level Denver Center
08:15PM 39.6261 -100.3333 254° West 423 487 36,000  Level Denver Center
08:16PM 39.5928 -100.4736 253° West 423 487 36,000  Level Denver Center
08:17PM 39.5553 -100.6364 253° West 423 487 36,000  Level Denver Center
08:18PM 39.5228 -100.7742 253° West 419 482 36,000  Level Denver Center
08:19PM 39.4847 -100.9336 253° West 416 479 36,000  Level Denver Center
08:20PM 39.4517 -101.0719 253° West 420 483 36,000  Level Denver Center
08:21PM 39.4128 -101.2322 253° West 417 480 36,000  Level Denver Center
08:22PM 39.3800 -101.3689 253° West 415 478 36,000  Level Denver Center
08:23PM 39.3472 -101.5047 253° West 415 478 36,000  Level Denver Center
08:24PM 39.3081 -101.6631 252° West 415 478 36,000  Level Denver Center
08:25PM 39.2725 -101.8019 252° West 417 480 36,000  Level Denver Center
08:26PM 39.2339 -101.9611 253° West 417 480 36,000  Level Denver Center
08:27PM 39.2006 -102.0953 252° West 413 475 36,000  Level Denver Center
08:28PM 39.1608 -102.2514 252° West 412 474 36,000  Level Denver Center
08:29PM 39.1328 -102.3622 252° West 410 472 36,000  Level Denver Center
08:30PM 39.0944 -102.5139 252° West 401 461 36,000  Level Denver Center
08:31PM 39.0564 -102.6661 252° West 400 460 36,000  Level Denver Center
08:32PM 39.0217 -102.7964 251° West 401 461 36,000  Level Denver Center
08:33PM 38.9875 -102.9311 252° West 396 456 36,000  Level Denver Center
08:34PM 38.9528 -103.0661 252° West 398 458 36,000  Level Denver Center
08:36PM 38.9111 -103.2267 252° West 395 455 36,000  Level Denver Center
08:37PM 38.8753 -103.3594 251° West 393 452 36,000  Level Denver Center
08:38PM 38.8400 -103.4933 251° West 392 451 36,000  Level Denver Center
08:39PM 38.8061 -103.6203 251° West 394 453 36,000  Level Denver Center
08:40PM 38.7783 -103.7267 252° West 395 455 36,000  Level Denver Center
08:41PM 38.7328 -103.8950 251° West 394 453 36,000  Level Denver Center
08:42PM 38.6922 -104.0453 251° West 399 459 36,000  Level Denver Center
08:43PM 38.6536 -104.1869 251° West 402 463 36,000  Level Denver Center
08:44PM 38.6103 -104.3478 251° West 400 460 36,000  Level Denver Center
08:45PM 38.5725 -104.4831 250° West 403 464 36,000  Level Denver Center
08:46PM 38.5361 -104.6183 251° West 402 463 36,000  Level Denver Center
08:47PM 38.4981 -104.7544 250° West 407 468 36,000  Level Denver Center
08:48PM 38.4597 -104.8925 251° West 411 473 36,000  Level Denver Center
08:49PM 38.4203 -105.0317 250° West 416 479 36,000  Level Denver Center
08:50PM 38.3814 -105.1683 250° West 412 474 36,000  Level Denver Center
08:51PM 38.3378 -105.3236 250° West 411 473 36,000  Level Denver Center
08:52PM 38.3006 -105.4539 250° West 410 472 36,000  Level Denver Center
08:53PM 38.2569 -105.6067 250° West 411 473 36,000  Level Denver Center
08:54PM 38.2125 -105.7583 250° West 412 474 36,000  Level Denver Center
08:55PM 38.1683 -105.9103 250° West 411 473 36,000  Level Denver Center
08:56PM 38.1317 -106.0392 250° West 407 468 36,000  Level Denver Center
08:57PM 38.0911 -106.1756 249° West 410 472 36,000  Level Denver Center
08:59PM 38.0478 -106.3203 249° West 411 473 36,000  Level Denver Center
09:00PM 38.0028 -106.4717 249° West 410 472 36,000  Level Denver Center
09:01PM 37.9639 -106.6072 250° West 409 471 36,000  Level Denver Center
09:02PM 37.9250 -106.7344 249° West 404 465 36,000  Level Denver Center
09:03PM 37.8806 -106.8828 249° West 403 464 36,000  Level Denver Center
09:04PM 37.8422 -107.0097 249° West 403 464 36,000  Level Denver Center
09:05PM 37.8031 -107.1372 249° West 403 464 36,000  Level Denver Center
09:06PM 37.7583 -107.2858 249° West 405 466 36,000  Level Denver Center
09:07PM 37.7189 -107.4142 249° West 408 470 36,000  Level Denver Center
09:08PM 37.6731 -107.5642 249° West 409 471 36,000  Level Denver Center
09:09PM 37.6339 -107.6933 249° West 411 473 36,000  Level Denver Center
09:10PM 37.5803 -107.8625 248° West 409 471 36,000  Level Denver Center
09:11PM 37.5406 -107.9889 248° West 405 466 36,000  Level Denver Center
09:12PM 37.4942 -108.1381 249° West 408 470 36,000  Level Denver Center
09:13PM 37.4547 -108.2642 249° West 405 466 36,000  Level Denver Center
09:14PM 37.4072 -108.4086 248° West 403 464 36,000  Level Denver Center
09:15PM 37.3672 -108.5344 248° West 405 466 36,000  Level Denver Center
09:16PM 37.3281 -108.6567 248° West 399 459 36,000  Level Denver Center
09:17PM 37.2758 -108.8236 249° West 402 463 36,000  Level Denver Center
09:18PM 37.2417 -108.9258 247° West 400 460 36,000  Level Denver Center
09:19PM 37.1881 -109.0919 248° West 403 464 36,000  Level Denver Center
09:21PM 37.1417 -109.2361 248° West 402 463 36,000  Level Denver Center
09:22PM 37.1003 -109.3589 247° West 401 461 36,000  Level Denver Center
09:23PM 37.0592 -109.4847 248° West 407 468 36,000  Level Denver Center
09:24PM 37.0108 -109.6317 248° West 410 472 36,000  Level Denver Center
09:25PM 36.9692 -109.7583 248° West 412 474 36,000  Level Denver Center
09:26PM 36.9186 -109.9058 247° West 414 476 36,000  Level Denver Center
09:27PM 36.8764 -110.0331 247° West 416 479 36,000  Level Denver Center
09:28PM 36.8267 -110.1806 247° West 416 479 36,000  Level Denver Center
09:29PM 36.7822 -110.3125 247° West 415 478 36,000  Level Denver Center
09:30PM 36.7372 -110.4450 247° West 414 476 36,000  Level Denver Center
09:31PM 36.6936 -110.5753 247° West 409 471 36,000  Level Denver Center
09:32PM 36.6483 -110.7047 246° West 407 468 36,000  Level Denver Center
09:33PM 36.6056 -110.8331 247° West 403 464 36,000  Level Denver Center
09:34PM 36.5508 -110.9908 247° West 410 472 36,000  Level Denver Center
09:35PM 36.5031 -111.1236 246° West 416 479 36,000  Level Denver Center
09:36PM 36.4594 -111.2508 247° West 407 468 36,000  Level Denver Center
09:37PM 36.4133 -111.3797 246° West 406 467 36,000  Level Denver Center
09:38PM 36.3669 -111.5061 246° West 404 465 36,000  Level Denver Center
09:39PM 36.3208 -111.6308 245° Southwest 401 461 36,000  Level Denver Center
09:40PM 36.2728 -111.7578 245° Southwest 401 461 36,000  Level Los Angeles Center
09:41PM 36.2281 -111.8806 246° West 393 452 36,000  Level Los Angeles Center
09:42PM 36.1853 -111.9919 245° Southwest 395 455 36,000  Level Los Angeles Center
09:43PM 36.1289 -112.1417 245° Southwest 401 461 36,000  Level Los Angeles Center
09:44PM 36.0828 -112.2672 246° West 402 463 36,000  Level Los Angeles Center
09:45PM 36.0303 -112.4053 245° Southwest 400 460 36,000  Level Los Angeles Center
09:46PM 35.9831 -112.5292 245° Southwest 398 458 36,000  Level Los Angeles Center
09:47PM 35.9425 -112.6356 245° Southwest 399 459 36,000  Level Los Angeles Center
09:48PM 35.8867 -112.7836 245° Southwest 399 459 36,000  Level Los Angeles Center
09:49PM 35.8383 -112.9064 244° Southwest 402 463 36,000  Level Los Angeles Center
09:50PM 35.7911 -113.0294 245° Southwest 402 463 36,000  Level Los Angeles Center
09:51PM 35.7425 -113.1536 244° Southwest 405 466 36,000 -180 Level Los Angeles Center
09:52PM 35.6947 -113.2781 245° Southwest 407 468 35,700 -600 Descending Los Angeles Center
09:53PM 35.6461 -113.4025 244° Southwest 408 470 34,800 -840 Descending Los Angeles Center
09:54PM 35.5875 -113.5533 244° Southwest 412 474 34,000 -420 Descending Los Angeles Center
09:55PM 35.5372 -113.6783 244° Southwest 413 475 34,000  Level Los Angeles Center
09:56PM 35.4878 -113.8036 244° Southwest 412 474 34,000  Level Los Angeles Center
09:57PM 35.4336 -113.9389 244° Southwest 413 475 34,000  Level Los Angeles Center
09:58PM 35.3825 -114.0664 244° Southwest 416 479 34,000  Level Los Angeles Center
10:00PM 35.3317 -114.1917 244° Southwest 411 473 34,000  Level Los Angeles Center
10:01PM 35.2817 -114.3150 244° Southwest 405 466 34,000 -120 Level Los Angeles Center
10:02PM 35.2311 -114.4428 244° Southwest 413 475 33,800 -600 Descending Los Angeles Center
10:03PM 35.1803 -114.5692 244° Southwest 413 475 32,800 -1,020 Descending Los Angeles Center
10:04PM 35.1167 -114.7219 243° Southwest 421 484 31,700 -1,080 Descending Los Angeles Center
10:05PM 35.0650 -114.8500 244° Southwest 420 483 30,600 -1,080 Descending Los Angeles Center
10:06PM 35.0139 -114.9756 244° Southwest 415 478 29,600 -960 Descending Los Angeles Center
10:07PM 34.9622 -115.1031 244° Southwest 415 478 28,700 -840 Descending Los Angeles Center
10:08PM 34.9097 -115.2292 243° Southwest 416 479 28,000 -360 Descending Los Angeles Center
10:09PM 34.8569 -115.3550 243° Southwest 416 479 28,000  Level Los Angeles Center
10:10PM 34.8047 -115.4803 243° Southwest 415 478 28,000  Level Los Angeles Center
10:11PM 34.7408 -115.6322 243° Southwest 413 475 28,000 -240 Level Los Angeles Center
10:12PM 34.6894 -115.7564 243° Southwest 411 473 27,600 -720 Descending Los Angeles Center
10:13PM 34.6350 -115.8844 243° Southwest 416 479 26,600 -840 Descending Los Angeles Center
10:14PM 34.5728 -116.0300 243° Southwest 414 476 26,000 -300 Descending Los Angeles Center
10:15PM 34.5181 -116.1536 242° Southwest 415 478 26,000  Level Los Angeles Center
10:16PM 34.4697 -116.2733 244° Southwest 406 467 26,000  Level Los Angeles Center
10:17PM 34.4186 -116.3928 243° Southwest 401 461 26,000  Level Los Angeles Center
10:18PM 34.3656 -116.5139 242° Southwest 404 465 26,000  Level Los Angeles Center
10:19PM 34.3147 -116.6317 242° Southwest 399 459 26,000 -300 Level Los Angeles Center
10:20PM 34.2639 -116.7517 243° Southwest 399 459 25,400 -1,440 Descending Los Angeles Center
10:21PM 34.2125 -116.8681 242° Southwest 392 451 23,100 -2,880 Descending Los Angeles Center
10:22PM 34.1558 -117.0036 243° Southwest 381 438 19,500 -2,040 Descending Los Angeles Center
10:23PM 34.1222 -117.1289 252° West 388 447 19,000 -1,260 Descending Los Angeles Center
10:24PM 34.0878 -117.2469 251° West 388 447 17,000 -1,860 Descending Los Angeles Center
10:25PM 34.0544 -117.3625 251° West 373 429 15,200 -1,860 Descending Los Angeles Center
10:26PM 34.0333 -117.4833 258° West 326 375 13,300 -2,160 Descending Southern California TRACON
10:27PM 34.0167 -117.5833 259° West 397 457 11,000 -1,740 Descending Southern California TRACON
10:28PM 34.0000 -117.7000 260° West 299 344 9,900 -1,200 Descending Southern California TRACON
10:29PM 34.0000 -117.8000 270° West 281 323 8,600 -1,200 Descending Southern California TRACON
10:30PM 34.0000 -117.8833 270° West 283 326 7,500 -1,200 Descending Southern California TRACON
10:31PM 34.0000 -117.9833 270° West 268 308 6,300 -1,080 Descending Southern California TRACON
10:32PM 33.9833 -118.0667 256° West 261 300 5,400 -1,140 Descending Southern California TRACON
10:33PM 33.9833 -118.1500 270° West 249 287 4,100 -1,140 Descending Southern California TRACON
10:34PM 33.9758 -118.1697 245° Southwest 257 296 3,800 -960 Descending Los Angeles Center
10:35PM 33.9686 -118.2436 263° West 235 270 2,700 -1,140 Descending Los Angeles Center
10:36PM 33.9619 -118.3164 264° West 203 234 1,500 -960 Descending Los Angeles Center
10:37PM 33.9569 -118.3647 263° West 170 196 800 -660 Descending Los Angeles Center
10:38PM 33.9508 -118.4144 262° West 154 177 200 -600 Descending Los Angeles Center
10:40PM 33.9425 -118.4081 259° West  Level Estimated
10:47PM 33.9425 -118.4081 259° West  Level Estimated